createdAt,value
2019-05-14T00:02:04.120Z,43.50
2019-05-14T00:04:31.582Z,43.50
2019-05-14T00:06:58.318Z,43.40
2019-05-14T00:09:25.423Z,43.40
2019-05-14T00:11:52.674Z,43.50
2019-05-14T00:14:21.965Z,43.40
2019-05-14T00:16:47.000Z,43.50
2019-05-14T00:19:14.100Z,43.40
2019-05-14T00:21:42.408Z,43.40
2019-05-14T00:24:08.732Z,43.50
2019-05-14T00:26:35.920Z,43.50
2019-05-14T00:29:03.120Z,43.40
2019-05-14T00:31:31.757Z,43.50
2019-05-14T00:33:57.412Z,43.40
2019-05-14T00:36:24.565Z,43.40
2019-05-14T00:38:51.704Z,43.40
2019-05-14T00:41:18.855Z,43.40
2019-05-14T00:43:45.976Z,43.40
2019-05-14T00:46:13.112Z,43.40
2019-05-14T00:48:42.039Z,43.50
2019-05-14T00:51:07.326Z,43.40
2019-05-14T00:53:34.348Z,43.40
2019-05-14T00:56:02.085Z,43.50
2019-05-14T00:58:30.917Z,43.50
2019-05-14T01:00:55.961Z,43.40
2019-05-14T01:03:23.084Z,43.50
2019-05-14T01:05:52.279Z,43.40
2019-05-14T01:08:17.276Z,43.40
2019-05-14T01:10:44.451Z,43.60
2019-05-14T01:13:11.541Z,43.60
2019-05-14T01:15:38.732Z,43.40
2019-05-14T01:18:05.845Z,43.40
2019-05-14T01:20:33.015Z,43.40
2019-05-14T01:23:02.318Z,43.50
2019-05-14T01:25:27.436Z,43.40
2019-05-14T01:27:54.529Z,43.50
2019-05-14T01:30:21.615Z,43.60
2019-05-14T01:32:51.018Z,43.50
2019-05-14T01:35:15.836Z,43.50
2019-05-14T01:37:43.015Z,43.50
2019-05-14T01:40:11.443Z,43.50
2019-05-14T01:42:37.180Z,43.50
2019-05-14T01:45:04.358Z,43.70
2019-05-14T01:47:31.896Z,43.60
2019-05-14T01:49:58.810Z,43.50
2019-05-14T01:52:26.035Z,43.60
2019-05-14T01:54:53.175Z,43.50
2019-05-14T01:57:21.988Z,43.50
2019-05-14T01:59:47.431Z,43.50
2019-05-14T02:02:14.592Z,43.40
2019-05-14T02:04:42.647Z,43.60
2019-05-14T02:07:08.824Z,43.60
2019-05-14T02:09:35.979Z,43.50
2019-05-14T02:12:03.046Z,43.50
2019-05-14T02:14:31.502Z,43.50
2019-05-14T02:16:57.445Z,43.60
2019-05-14T02:19:24.569Z,43.60
2019-05-14T02:21:51.711Z,43.50
2019-05-14T02:24:18.760Z,43.50
2019-05-14T02:26:45.921Z,43.50
2019-05-14T02:29:13.032Z,43.60
2019-05-14T02:31:40.152Z,43.60
2019-05-14T02:34:10.114Z,43.60
2019-05-14T02:36:34.483Z,43.50
2019-05-14T02:39:01.626Z,43.50
2019-05-14T02:41:29.897Z,43.50
2019-05-14T02:43:59.172Z,43.60
2019-05-14T02:46:23.126Z,43.50
2019-05-14T02:48:50.359Z,43.50
2019-05-14T02:51:19.813Z,43.50
2019-05-14T02:53:44.636Z,43.60
2019-05-14T02:56:11.753Z,43.60
2019-05-14T02:58:40.211Z,43.50
2019-05-14T03:03:42.103Z,43.60
2019-05-14T03:06:09.591Z,43.60
2019-05-14T03:08:38.938Z,43.50
2019-05-14T03:11:03.381Z,43.60
2019-05-14T03:13:30.471Z,43.60
2019-05-14T03:15:59.438Z,43.70
2019-05-14T03:18:24.676Z,43.50
2019-05-14T03:20:52.397Z,43.50
2019-05-14T03:23:22.758Z,43.60
2019-05-14T03:25:49.253Z,43.60
2019-05-14T03:28:13.622Z,43.50
2019-05-14T03:30:42.213Z,43.50
2019-05-14T03:33:13.281Z,43.50
2019-05-14T03:35:42.322Z,43.60
2019-05-14T03:38:01.985Z,43.50
2019-05-14T03:40:29.490Z,43.50
2019-05-14T03:42:59.570Z,44.10
2019-05-14T03:45:23.287Z,43.60
2019-05-14T03:47:50.839Z,43.70
2019-05-14T03:50:19.157Z,43.60
2019-05-14T03:52:44.637Z,43.50
2019-05-14T03:55:11.721Z,43.50
2019-05-14T03:57:39.951Z,43.50
2019-05-14T04:00:05.953Z,43.70
2019-05-14T04:02:33.053Z,43.60
2019-05-14T04:05:00.203Z,43.50
2019-05-14T04:07:30.374Z,43.60
2019-05-14T04:09:54.431Z,43.50
2019-05-14T04:12:21.563Z,43.60
2019-05-14T04:14:50.225Z,43.70
2019-05-14T04:17:20.129Z,43.60
2019-05-14T04:19:43.312Z,43.60
2019-05-14T04:22:11.092Z,43.60
2019-05-14T04:24:41.265Z,43.60
2019-05-14T04:27:11.630Z,43.70
2019-05-14T04:29:32.396Z,43.70
2019-05-14T04:32:00.351Z,43.80
2019-05-14T04:34:29.931Z,43.60
2019-05-14T04:36:54.036Z,43.60
2019-05-14T04:39:21.127Z,43.70
2019-05-14T04:41:49.775Z,43.80
2019-05-14T04:44:15.324Z,43.70
2019-05-14T04:46:42.421Z,43.70
2019-05-14T04:49:09.881Z,43.70
2019-05-14T04:51:39.615Z,43.70
2019-05-14T04:54:04.565Z,43.80
2019-05-14T04:56:31.630Z,43.80
2019-05-14T04:58:59.676Z,43.80
2019-05-14T05:01:29.246Z,43.90
2019-05-14T05:03:53.173Z,43.80
2019-05-14T05:06:20.248Z,43.90
2019-05-14T05:08:49.768Z,43.80
2019-05-14T05:11:17.119Z,43.80
2019-05-14T05:13:41.553Z,43.80
2019-05-14T05:16:09.879Z,43.80
2019-05-14T05:18:35.713Z,43.80
2019-05-14T05:21:02.775Z,44.00
2019-05-14T05:23:29.845Z,43.90
2019-05-14T05:25:58.483Z,43.80
2019-05-14T05:28:24.077Z,43.90
2019-05-14T05:30:51.152Z,43.90
2019-05-14T05:33:18.763Z,44.00
2019-05-14T05:35:45.341Z,43.90
2019-05-14T05:38:12.389Z,44.00
2019-05-14T05:40:39.438Z,44.00
2019-05-14T05:43:08.828Z,44.00
2019-05-14T05:45:33.696Z,44.00
2019-05-14T05:48:01.834Z,44.00
2019-05-14T05:50:28.721Z,44.00
2019-05-14T05:52:54.915Z,44.00
2019-05-14T05:55:21.975Z,44.00
2019-05-14T05:57:49.374Z,44.00
2019-05-14T06:00:18.945Z,44.10
2019-05-14T06:02:45.355Z,44.20
2019-05-14T06:05:12.430Z,44.10
2019-05-14T06:07:39.774Z,44.20
2019-05-14T06:10:08.013Z,44.10
2019-05-14T06:12:33.739Z,44.10
2019-05-14T06:15:00.861Z,44.10
2019-05-14T06:17:28.474Z,44.10
2019-05-14T06:19:55.038Z,44.10
2019-05-14T06:22:22.073Z,44.20
2019-05-14T06:24:49.130Z,44.20
2019-05-14T06:27:18.207Z,44.20
2019-05-14T06:29:43.276Z,44.20
2019-05-14T06:32:10.309Z,44.30
2019-05-14T06:34:38.263Z,44.20
2019-05-14T06:37:04.498Z,44.30
2019-05-14T06:39:31.570Z,44.30
2019-05-14T06:41:58.823Z,44.30
2019-05-14T06:44:26.243Z,44.30
2019-05-14T06:46:53.312Z,44.30
2019-05-14T06:49:20.376Z,44.30
2019-05-14T06:51:48.992Z,44.40
2019-05-14T06:54:14.680Z,44.40
2019-05-14T06:56:41.804Z,44.40
2019-05-14T06:59:09.158Z,44.40
2019-05-14T07:01:38.238Z,44.40
2019-05-14T07:04:03.217Z,44.40
2019-05-14T07:06:30.321Z,44.40
2019-05-14T07:08:58.882Z,45.10
2019-05-14T07:11:24.691Z,44.40
2019-05-14T07:13:51.788Z,44.50
2019-05-14T07:16:19.790Z,44.50
2019-05-14T07:18:50.659Z,44.50
2019-05-14T07:21:13.252Z,44.50
2019-05-14T07:23:40.384Z,44.50
2019-05-14T07:26:08.336Z,44.50
2019-05-14T07:28:34.637Z,44.50
2019-05-14T07:31:01.700Z,44.50
2019-05-14T07:33:29.369Z,44.50
2019-05-14T07:35:55.893Z,44.50
2019-05-14T07:38:23.288Z,44.50
2019-05-14T07:40:50.386Z,44.50
2019-05-14T07:43:18.875Z,44.50
2019-05-14T07:45:44.701Z,44.60
2019-05-14T07:48:11.766Z,44.60
2019-05-14T07:50:39.732Z,44.50
2019-05-14T07:53:06.040Z,44.50
2019-05-14T07:55:33.128Z,44.50
2019-05-14T07:58:00.252Z,44.50
2019-05-14T08:00:28.566Z,44.50
2019-05-14T08:02:54.500Z,44.50
2019-05-14T08:05:21.650Z,44.50
2019-05-14T08:07:48.800Z,44.50
2019-05-14T08:10:18.145Z,44.50
2019-05-14T08:12:43.036Z,44.60
2019-05-14T08:15:17.736Z,44.50
2019-05-14T08:17:38.736Z,44.60
2019-05-14T08:20:05.026Z,44.50
2019-05-14T08:22:32.222Z,44.50
2019-05-14T08:24:59.310Z,44.50
2019-05-14T08:27:30.897Z,44.50
2019-05-14T08:29:53.493Z,44.50
2019-05-14T08:32:20.632Z,44.50
2019-05-14T08:34:48.114Z,44.50
2019-05-14T08:37:14.861Z,44.60
2019-05-14T08:39:42.157Z,44.50
2019-05-14T08:42:09.290Z,44.50
2019-05-14T08:44:38.720Z,44.50
2019-05-14T08:47:03.521Z,44.50
2019-05-14T08:49:41.983Z,44.50
2019-05-14T08:51:59.532Z,44.50
2019-05-14T08:54:24.999Z,44.50
2019-05-14T08:56:52.119Z,44.50
2019-05-14T08:59:19.699Z,44.50
2019-05-14T09:01:58.588Z,44.50
2019-05-14T09:04:13.464Z,44.50
2019-05-14T09:06:40.547Z,44.50
2019-05-14T09:09:09.230Z,44.50
2019-05-14T09:11:36.561Z,44.50
2019-05-14T09:14:02.449Z,44.40
2019-05-14T09:16:41.816Z,44.40
2019-05-14T09:18:58.191Z,44.30
2019-05-14T09:21:23.944Z,44.40
2019-05-14T09:23:51.076Z,44.30
2019-05-14T09:26:18.316Z,44.30
2019-05-14T09:28:45.343Z,44.30
2019-05-14T09:31:12.451Z,44.20
2019-05-14T09:33:39.546Z,44.20
2019-05-14T09:36:19.101Z,44.20
2019-05-14T09:38:33.874Z,44.20
2019-05-14T09:41:10.568Z,44.20
2019-05-14T09:43:28.714Z,44.10
2019-05-14T09:45:55.394Z,44.10
2019-05-14T09:48:22.486Z,44.10
2019-05-14T09:50:49.621Z,43.80
2019-05-14T09:53:18.184Z,44.10
2019-05-14T09:55:44.040Z,44.10
2019-05-14T09:58:11.167Z,44.10
2019-05-14T10:00:38.987Z,44.00
2019-05-14T10:03:05.418Z,44.00
2019-05-14T10:05:32.532Z,44.00
2019-05-14T10:07:59.730Z,44.00
2019-05-14T10:10:30.449Z,43.90
2019-05-14T10:12:57.270Z,43.90
2019-05-14T10:15:21.337Z,43.90
2019-05-14T10:17:50.044Z,43.90
2019-05-14T10:20:32.161Z,44.00
2019-05-14T10:22:43.566Z,44.50
2019-05-14T10:25:10.730Z,44.00
2019-05-14T10:27:37.805Z,44.00
2019-05-14T10:30:05.582Z,43.90
2019-05-14T10:32:32.752Z,43.90
2019-05-14T10:34:59.906Z,43.90
2019-05-14T10:37:28.755Z,43.90
2019-05-14T10:39:54.280Z,43.80
2019-05-14T10:42:21.357Z,43.80
2019-05-14T10:44:48.548Z,43.80
2019-05-14T10:47:15.720Z,43.80
2019-05-14T10:49:42.784Z,43.80
2019-05-14T10:52:10.068Z,43.80
2019-05-14T10:54:40.262Z,43.80
2019-05-14T10:57:04.359Z,43.80
2019-05-14T10:59:31.547Z,43.70
2019-05-14T11:01:58.633Z,43.70
2019-05-14T11:04:28.429Z,43.70
2019-05-14T11:06:52.844Z,43.70
2019-05-14T11:09:19.936Z,43.70
2019-05-14T11:11:47.037Z,43.70
2019-05-14T11:14:14.188Z,43.70
2019-05-14T11:16:42.052Z,43.70
2019-05-14T11:19:09.494Z,43.70
2019-05-14T11:21:35.688Z,43.60
2019-05-14T11:24:02.769Z,43.70
2019-05-14T11:26:29.962Z,43.60
2019-05-14T11:28:58.592Z,43.60
2019-05-14T11:31:24.298Z,43.60
2019-05-14T11:33:51.420Z,43.60
2019-05-14T11:36:18.865Z,43.60
2019-05-14T11:38:45.617Z,43.60
2019-05-14T11:41:12.727Z,44.20
2019-05-14T11:43:40.140Z,43.60
2019-05-14T11:46:08.666Z,43.50
2019-05-14T11:48:34.157Z,43.60
2019-05-14T11:51:01.309Z,43.50
2019-05-14T11:53:28.410Z,43.50
2019-05-14T11:55:55.523Z,43.50
2019-05-14T11:58:22.622Z,43.50
2019-05-14T12:00:49.691Z,43.50
2019-05-14T12:03:19.659Z,43.50
2019-05-14T12:05:43.870Z,43.50
2019-05-14T12:08:11.019Z,43.40
2019-05-14T12:10:38.742Z,43.50
2019-05-14T12:13:05.270Z,43.50
2019-05-14T12:15:32.449Z,43.50
2019-05-14T12:18:00.647Z,43.50
2019-05-14T12:20:39.531Z,43.70
2019-05-14T12:23:12.319Z,43.40
2019-05-14T12:25:40.609Z,43.40
2019-05-14T12:28:13.202Z,43.40
2019-05-14T12:30:35.174Z,43.40
2019-05-14T12:33:02.992Z,43.30
2019-05-14T12:35:30.816Z,43.30
2019-05-14T12:37:58.572Z,43.30
2019-05-14T12:40:25.173Z,43.30
2019-05-14T12:42:52.378Z,43.30
2019-05-14T12:45:19.451Z,43.30
2019-05-14T12:47:49.811Z,43.30
2019-05-14T12:50:13.650Z,43.30
2019-05-14T12:52:40.737Z,43.30
2019-05-14T12:55:09.097Z,43.30
2019-05-14T12:57:35.030Z,43.30
2019-05-14T13:00:02.217Z,43.30
2019-05-14T13:02:29.713Z,43.30
2019-05-14T13:04:59.991Z,43.10
2019-05-14T13:07:23.508Z,42.90
2019-05-14T13:09:50.891Z,42.90
2019-05-14T13:12:18.943Z,43.00
2019-05-14T13:14:45.138Z,43.10
2019-05-14T13:17:12.301Z,42.60
2019-05-14T13:19:39.502Z,42.80
2019-05-14T13:22:13.603Z,42.70
2019-05-14T13:24:33.711Z,43.00
2019-05-14T13:27:00.819Z,42.80
2019-05-14T13:29:28.941Z,43.10
2019-05-14T13:31:55.130Z,42.80
2019-05-14T13:34:22.263Z,43.00
2019-05-14T13:36:49.356Z,43.00
2019-05-14T13:39:19.215Z,42.70
2019-05-14T13:41:43.620Z,43.00
2019-05-14T13:44:21.278Z,42.80
2019-05-14T13:46:38.240Z,42.50
2019-05-14T13:49:05.394Z,42.80
2019-05-14T13:51:33.558Z,42.40
2019-05-14T13:53:59.572Z,42.50
2019-05-14T13:56:28.357Z,42.50
2019-05-14T13:58:53.891Z,42.90
2019-05-14T14:01:21.055Z,42.50
2019-05-14T14:04:02.698Z,42.40
2019-05-14T14:06:15.361Z,42.40
2019-05-14T14:08:42.721Z,42.70
2019-05-14T14:11:12.716Z,42.50
2019-05-14T14:13:39.167Z,42.50
2019-05-14T14:16:13.668Z,42.40
2019-05-14T14:18:39.288Z,42.50
2019-05-14T14:21:05.587Z,42.50
2019-05-14T14:23:34.852Z,42.50
2019-05-14T14:26:05.414Z,42.40
2019-05-14T14:28:33.868Z,42.50
2019-05-14T14:31:01.734Z,42.50
2019-05-14T14:33:29.108Z,42.50
2019-05-14T14:38:30.281Z,42.40
2019-05-14T14:40:58.296Z,42.50
2019-05-14T14:43:25.684Z,42.50
2019-05-14T14:45:53.089Z,42.40
2019-05-14T14:48:20.714Z,42.50
2019-05-14T14:50:49.968Z,42.50
2019-05-14T14:53:14.796Z,42.50
2019-05-14T14:55:41.993Z,42.70
2019-05-14T14:58:11.556Z,42.50
2019-05-14T15:00:38.109Z,42.70
2019-05-14T15:03:03.658Z,42.40
2019-05-14T15:05:30.948Z,42.70
2019-05-14T15:08:00.182Z,42.60
2019-05-14T15:10:28.396Z,42.40
2019-05-14T15:12:55.202Z,42.40
2019-05-14T15:15:23.313Z,42.50
2019-05-14T15:17:51.662Z,42.40
2019-05-14T15:20:19.856Z,42.70
2019-05-14T15:22:49.120Z,42.40
2019-05-14T15:25:15.561Z,42.50
2019-05-14T15:27:46.298Z,42.40
2019-05-14T15:30:20.403Z,42.40
2019-05-14T15:32:51.386Z,42.50
2019-05-14T15:35:18.912Z,42.40
2019-05-14T15:37:48.778Z,42.40
2019-05-14T15:40:14.770Z,42.50
2019-05-14T15:42:42.616Z,42.40
2019-05-14T15:45:10.408Z,42.40
2019-05-14T15:47:38.912Z,42.50
2019-05-14T15:50:04.883Z,42.50
2019-05-14T15:52:32.393Z,42.40
2019-05-14T15:54:59.660Z,42.40
2019-05-14T15:57:28.907Z,42.50
2019-05-14T15:59:54.614Z,42.60
2019-05-14T16:02:22.017Z,42.70
2019-05-14T16:04:49.256Z,42.60
2019-05-14T16:07:18.631Z,42.50
2019-05-14T16:09:45.089Z,42.50
2019-05-14T16:12:13.380Z,42.50
2019-05-14T16:14:41.887Z,42.50
2019-05-14T16:17:11.983Z,42.50
2019-05-14T16:19:39.006Z,42.60
2019-05-14T16:22:04.065Z,42.70
2019-05-14T16:24:31.203Z,42.70
2019-05-14T16:27:00.270Z,42.70
2019-05-14T16:29:40.337Z,42.70
2019-05-14T16:31:53.039Z,42.70
2019-05-14T16:34:20.126Z,42.80
2019-05-14T16:36:48.821Z,42.70
2019-05-14T16:39:14.529Z,42.70
2019-05-14T16:41:41.777Z,42.70
2019-05-14T16:44:09.140Z,42.70
2019-05-14T16:46:38.458Z,42.70
2019-05-14T16:49:03.621Z,42.70
2019-05-14T16:51:30.892Z,42.70
2019-05-14T16:53:59.049Z,42.70
2019-05-14T16:56:28.286Z,42.70
2019-05-14T16:58:53.741Z,42.60
2019-05-14T17:01:22.014Z,42.60
2019-05-14T17:03:51.396Z,42.70
2019-05-14T17:06:19.404Z,42.60
2019-05-14T17:08:48.925Z,42.60
2019-05-14T17:11:14.345Z,42.60
2019-05-14T17:13:42.362Z,42.70
2019-05-14T17:16:11.708Z,42.60
2019-05-14T17:18:40.971Z,42.60
2019-05-14T17:21:10.581Z,42.60
2019-05-14T17:23:39.418Z,42.60
2019-05-14T17:26:08.632Z,42.60
2019-05-14T17:28:36.777Z,42.60
2019-05-14T17:31:00.736Z,42.60
2019-05-14T17:33:29.292Z,42.60
2019-05-14T17:35:58.585Z,42.70
2019-05-14T17:38:24.333Z,42.70
2019-05-14T17:40:52.023Z,42.60
2019-05-14T17:43:21.355Z,42.60
2019-05-14T17:45:48.227Z,42.60
2019-05-14T17:48:13.722Z,42.60
2019-05-14T17:50:40.885Z,42.60
2019-05-14T17:53:09.685Z,42.60
2019-05-14T17:55:44.441Z,42.70
2019-05-14T17:58:03.076Z,42.60
2019-05-14T18:00:30.547Z,42.70
2019-05-14T18:02:59.215Z,42.60
2019-05-14T18:05:28.964Z,42.60
2019-05-14T18:07:58.716Z,42.60
2019-05-14T18:10:23.337Z,42.60
2019-05-14T18:12:50.719Z,42.70
2019-05-14T18:15:17.838Z,42.60
2019-05-14T18:17:44.949Z,42.70
2019-05-14T18:20:12.007Z,42.60
2019-05-14T18:22:42.105Z,42.60
2019-05-14T18:25:06.322Z,42.60
2019-05-14T18:27:33.527Z,42.60
2019-05-14T18:30:00.671Z,42.60
2019-05-14T18:32:27.875Z,42.70
2019-05-14T18:34:55.045Z,42.60
2019-05-14T18:37:22.173Z,42.70
2019-05-14T18:39:49.259Z,42.50
2019-05-14T18:42:18.855Z,42.50
2019-05-14T18:44:44.247Z,42.50
2019-05-14T18:47:11.349Z,42.50
2019-05-14T18:49:38.533Z,42.50
2019-05-14T18:52:05.641Z,42.50
2019-05-14T18:54:32.766Z,42.40
2019-05-14T18:56:59.851Z,42.50
2019-05-14T18:59:30.559Z,42.30
2019-05-14T19:01:54.271Z,42.40
2019-05-14T19:04:21.489Z,42.40
2019-05-14T19:06:48.646Z,42.40
2019-05-14T19:09:15.738Z,42.30
2019-05-14T19:11:42.909Z,42.50
2019-05-14T19:14:09.984Z,42.30
2019-05-14T19:16:38.372Z,42.40
2019-05-14T19:19:04.445Z,42.30
2019-05-14T19:21:31.564Z,42.30
2019-05-14T19:23:58.721Z,42.30
2019-05-14T19:26:36.510Z,42.30
2019-05-14T19:28:53.048Z,42.30
2019-05-14T19:31:20.136Z,42.30
2019-05-14T19:33:48.814Z,42.30
2019-05-14T19:36:14.392Z,42.20
2019-05-14T19:38:41.503Z,42.30
2019-05-14T19:41:08.893Z,42.30
2019-05-14T19:43:36.028Z,42.20
2019-05-14T19:46:03.084Z,42.30
2019-05-14T19:48:32.800Z,42.30
2019-05-14T19:50:58.438Z,42.30
2019-05-14T19:53:24.586Z,42.10
2019-05-14T19:55:51.717Z,42.10
2019-05-14T19:58:20.173Z,42.20
2019-05-14T20:00:46.031Z,42.20
2019-05-14T20:03:13.192Z,42.10
2019-05-14T20:05:40.659Z,42.10
2019-05-14T20:08:08.710Z,42.10
2019-05-14T20:10:34.924Z,42.10
2019-05-14T20:13:02.091Z,42.10
2019-05-14T20:15:29.212Z,42.10
2019-05-14T20:17:58.162Z,42.10
2019-05-14T20:20:23.581Z,42.00
2019-05-14T20:22:50.732Z,42.00
2019-05-14T20:25:17.850Z,42.00
2019-05-14T20:27:45.040Z,42.00
2019-05-14T20:30:12.118Z,42.10
2019-05-14T20:32:39.228Z,42.20
2019-05-14T20:35:08.734Z,42.20
2019-05-14T20:37:33.831Z,42.00
2019-05-14T20:40:01.006Z,41.90
2019-05-14T20:42:29.024Z,42.00
2019-05-14T20:44:55.276Z,41.90
2019-05-14T20:47:22.380Z,41.80
2019-05-14T20:49:49.630Z,41.90
2019-05-14T20:52:19.210Z,42.00
2019-05-14T20:54:43.812Z,41.90
2019-05-14T20:57:23.384Z,41.90
2019-05-14T20:59:38.957Z,41.90
2019-05-14T21:02:05.348Z,41.90
2019-05-14T21:04:32.434Z,41.80
2019-05-14T21:06:59.598Z,42.00
2019-05-14T21:09:28.869Z,41.80
2019-05-14T21:11:54.061Z,41.80
2019-05-14T21:14:21.173Z,41.90
2019-05-14T21:16:48.964Z,41.80
2019-05-14T21:19:15.339Z,41.80
2019-05-14T21:21:42.616Z,41.80
2019-05-14T21:24:09.685Z,41.90
2019-05-14T21:26:36.864Z,41.80
2019-05-14T21:29:03.955Z,41.80
2019-05-14T21:31:31.152Z,41.90
2019-05-14T21:33:58.769Z,42.10
2019-05-14T21:36:25.431Z,41.80
2019-05-14T21:38:52.516Z,41.80
2019-05-14T21:41:20.549Z,41.80
2019-05-14T21:43:49.157Z,41.80
2019-05-14T21:46:13.931Z,41.80
2019-05-14T21:48:41.042Z,41.80
2019-05-14T21:51:08.723Z,41.80
2019-05-14T21:53:35.304Z,41.80
2019-05-14T21:56:02.506Z,41.70
2019-05-14T21:58:29.642Z,41.70
2019-05-14T22:00:59.024Z,41.80
2019-05-14T22:03:23.915Z,41.90
2019-05-14T22:05:51.616Z,41.80
2019-05-14T22:08:18.185Z,41.80
2019-05-14T22:10:45.272Z,41.70
2019-05-14T22:13:12.320Z,41.80
2019-05-14T22:15:39.431Z,41.80
2019-05-14T22:18:16.556Z,41.70
2019-05-14T22:20:33.936Z,41.80
2019-05-14T22:23:01.021Z,41.80
2019-05-14T22:25:29.093Z,41.80
2019-05-14T22:28:09.007Z,41.80
2019-05-14T22:30:23.291Z,41.80
2019-05-14T22:32:50.370Z,41.90
2019-05-14T22:35:18.701Z,41.80
2019-05-14T22:37:44.698Z,41.90
2019-05-14T22:40:11.845Z,41.80
2019-05-14T22:42:39.363Z,41.70
2019-05-14T22:45:06.235Z,41.80
2019-05-14T22:47:33.390Z,41.70
2019-05-14T22:50:00.508Z,41.80
2019-05-14T22:52:30.899Z,41.70
2019-05-14T22:54:55.023Z,41.70
2019-05-14T22:57:22.196Z,41.80
2019-05-14T22:59:49.316Z,41.80
2019-05-14T23:02:19.134Z,41.60
2019-05-14T23:04:43.707Z,41.80
2019-05-14T23:07:11.312Z,41.70
2019-05-14T23:09:38.865Z,41.70
2019-05-14T23:12:05.627Z,41.90
2019-05-14T23:14:32.865Z,41.80
2019-05-14T23:16:59.988Z,41.70
2019-05-14T23:19:27.184Z,41.70
2019-05-14T23:21:54.331Z,41.70
2019-05-14T23:24:21.538Z,41.70
2019-05-14T23:26:49.347Z,41.60
2019-05-14T23:29:15.797Z,41.70
2019-05-14T23:31:42.844Z,41.70
2019-05-14T23:34:10.017Z,41.70
2019-05-14T23:36:38.867Z,41.80
2019-05-14T23:39:05.213Z,41.70
2019-05-14T23:41:32.375Z,42.30
2019-05-14T23:43:59.439Z,41.60
2019-05-14T23:46:28.998Z,41.70
2019-05-14T23:48:53.824Z,41.70
2019-05-14T23:51:20.911Z,41.70
2019-05-14T23:53:48.382Z,41.60
2019-05-14T23:56:15.129Z,41.70
2019-05-14T23:58:54.219Z,41.60
